Impacts TAF Board
For situational awareness. Not to be used for flight planning purposes.
IDs:

KBOS - Boston/Logan Intl, MA, US

Issued at 2336 UTC 11 Dec 2018
Updated at 0230 UTC 12 Dec 2018
Potential Impact None Slight Moderate High
Time<<13/03Z 13/04Z 13/05Z 13/06Z 13/07Z 13/08Z 13/09Z 13/10Z 13/11Z 13/12Z 13/13Z 13/14Z 13/15Z
Type PRVL PRVL PRVL
VIS >6 >6 >6
CIG -- -- --
Cover FEW FEW FEW
FltCat VFR VFR VFR
WX -- -- --
WDir 340 340 340
WSpd 9 9 9
WGst -- -- --
Raw TAF
KBOS 112336Z 1200/1306 22005KT P6SM BKN040
  FM120200 27004KT P6SM BKN035
  FM120600 32005KT P6SM SCT045
  FM121200 33009KT P6SM SCT045
  FM121600 33012G21KT P6SM FEW150
  FM130000 34009KT P6SM FEW200


METAR Board
Radar Display
Forecast Discussion
For situational awareness. Not to be used for flight planning purposes.